Guerra, Texas
Current Conditions -  °F | °C
As of 11:35 AM on Thursday 23 Oct 2014 (Local Time) from KAPY Reporting Station
Scattered Clouds Scattered Clouds  
Wind Chill: 80°   Ceiling: Unl
Heat Index: 81°   Visibility: 10mi
Dew Point: 61°   Wind: 0mph
Humidity: 52%   Direction: NA
Pressure: 30.12"   Gusts: NA
Location:  26.88°N, 98.89°W
Report Text: KAPY 231635Z AUTO 00000KT 10SM SCT100 26/16 A3012 RMK AO2 T02650159
Loading
Personal Weather Stations






























Interactive Weather Map
Tropical Storm Tracking
New forecast layout! Learn more

10-Day Weather Forecast

Advertisements
Track Severe Weather on mobile